Time;durP1;ratioP1;P1;durP2;ratioP2;P2;SDS_P1;SDS_P2;PMS_P1;PMS_P2;Temp;Humidity;BMP_temperature;BMP_pressure;BME280_temperature;BME280_humidity;BME280_pressure;Samples;Min_cycle;Max_cycle;Signal;HPM_P1;HPM_P2
2024/02/22 00:00:27;;;;;;;1999.90;999.90;;;;;;;;;;5039771;28;20661;-78
2024/02/22 00:02:53;;;;;;;1999.90;999.90;;;;;;;;;;5023005;28;20192;-77
2024/02/22 00:05:20;;;;;;;1999.90;999.90;;;10.20;99.90;;;;;;5039180;28;20481;-78
2024/02/22 00:07:46;;;;;;;1999.90;999.90;;;10.50;99.90;;;;;;5022262;28;20500;-78
2024/02/22 00:10:13;;;;;;;1999.90;999.90;;;10.20;99.90;;;;;;5038466;28;20925;-78
2024/02/22 00:12:41;;;;;;;1999.90;999.90;;;;;;;;;;5034908;28;20927;-77
2024/02/22 00:15:10;;;;;;;1999.90;999.90;;;10.20;99.90;;;;;;5022245;28;20454;-77
2024/02/22 00:17:36;;;;;;;1999.90;999.90;;;10.20;99.90;;;;;;5039589;28;20418;-78
2024/02/22 00:20:03;;;;;;;1999.90;999.90;;;11.30;99.90;;;;;;5038170;28;20423;-78
2024/02/22 00:22:33;;;;;;;1999.90;999.90;;;10.20;99.90;;;;;;5036902;28;20270;-78
2024/02/22 00:24:58;;;;;;;1999.90;999.90;;;10.20;99.90;;;;;;5037270;28;20423;-78
2024/02/22 00:27:26;;;;;;;1999.90;999.90;;;;;;;;;;5037805;28;20424;-77
2024/02/22 00:29:51;;;;;;;1999.90;999.90;;;10.30;99.90;;;;;;5036965;28;20183;-77
2024/02/22 00:32:17;;;;;;;1999.90;999.90;;;10.30;99.90;;;;;;5032023;28;20491;-78
2024/02/22 00:34:42;;;;;;;1999.90;999.90;;;10.30;99.90;;;;;;5032305;28;20272;-77
2024/02/22 00:37:08;;;;;;;1999.90;999.90;;;10.20;99.90;;;;;;5032300;28;20198;-77
2024/02/22 00:39:33;;;;;;;1999.90;999.90;;;10.30;99.90;;;;;;5032318;28;20165;-77
2024/02/22 00:41:59;;;;;;;1999.90;999.90;;;;;;;;;;5032027;28;20191;-76
2024/02/22 00:44:25;;;;;;;1999.90;999.90;;;10.20;99.90;;;;;;5032181;28;20177;-76
2024/02/22 00:46:54;;;;;;;1999.90;999.90;;;10.20;99.90;;;;;;5055988;22;20927;-72
2024/02/22 00:49:19;;;;;;;1999.90;999.90;;;10.00;99.90;;;;;;5013729;28;20506;-73
2024/02/22 00:51:45;;;;;;;1999.90;999.90;;;10.20;99.90;;;;;;5011195;28;20494;-73
2024/02/22 00:54:12;;;;;;;1999.90;999.90;;;10.30;99.90;;;;;;5013811;28;20647;-72
2024/02/22 00:56:38;;;;;;;1999.90;999.90;;;10.30;99.90;;;;;;5013037;28;20207;-72
2024/02/22 00:59:03;;;;;;;1999.90;999.90;;;10.20;99.90;;;;;;5013403;28;20407;-72
2024/02/22 01:01:29;;;;;;;1999.90;999.90;;;10.10;99.90;;;;;;5012897;28;20508;-72
2024/02/22 01:03:55;;;;;;;1999.90;999.90;;;10.20;99.90;;;;;;5012789;28;20172;-72
2024/02/22 01:06:20;;;;;;;1999.90;999.90;;;10.20;99.90;;;;;;5012424;28;20427;-72
2024/02/22 01:08:46;;;;;;;1999.90;999.90;;;10.10;99.90;;;;;;5012494;28;20177;-72
2024/02/22 01:11:12;;;;;;;1999.90;999.90;;;10.10;99.90;;;;;;5012087;28;20179;-73
2024/02/22 01:13:37;;;;;;;1999.90;999.90;;;10.20;99.90;;;;;;5011062;28;20176;-72
2024/02/22 01:16:04;;;;;;;1999.90;999.90;;;10.10;99.90;;;;;;5012265;28;20566;-72
2024/02/22 01:18:30;;;;;;;1999.90;999.90;;;10.20;99.90;;;;;;5012276;28;20568;-72
2024/02/22 01:20:56;;;;;;;1999.90;999.90;;;10.20;99.90;;;;;;5011822;28;20541;-72
2024/02/22 01:23:21;;;;;;;1999.90;999.90;;;10.30;99.90;;;;;;5012050;28;20537;-72
2024/02/22 01:25:47;;;;;;;1999.90;999.90;;;10.30;99.90;;;;;;5012024;28;20185;-73
2024/02/22 01:28:13;;;;;;;1999.90;999.90;;;10.30;99.90;;;;;;5012065;28;20163;-72
2024/02/22 01:30:39;;;;;;;1999.90;999.90;;;10.20;99.90;;;;;;5010512;28;20441;-73
2024/02/22 01:33:05;;;;;;;1999.90;999.90;;;10.30;99.90;;;;;;5012055;28;20161;-72
2024/02/22 01:35:31;;;;;;;1999.90;999.90;;;10.30;99.90;;;;;;5011804;28;20533;-73
2024/02/22 01:37:56;;;;;;;1999.90;999.90;;;10.30;99.90;;;;;;5011982;28;20411;-72
2024/02/22 01:40:22;;;;;;;1999.90;999.90;;;10.30;99.90;;;;;;5011698;28;20666;-72
2024/02/22 01:42:48;;;;;;;1999.90;999.90;;;10.30;99.90;;;;;;5011839;28;20176;-72
2024/02/22 01:45:14;;;;;;;1999.90;999.90;;;10.30;99.90;;;;;;5011752;28;20208;-73
2024/02/22 01:47:40;;;;;;;1999.90;999.90;;;10.30;99.90;;;;;;5011890;28;20196;-72
2024/02/22 01:50:08;;;;;;;1999.90;999.90;;;10.40;99.90;;;;;;5011813;28;20412;-72
2024/02/22 01:52:34;;;;;;;1999.90;999.90;;;10.30;99.90;;;;;;5011533;28;20501;-72
2024/02/22 01:55:00;;;;;;;1999.90;999.90;;;10.10;99.90;;;;;;5011611;28;20504;-71
2024/02/22 01:57:26;;;;;;;1999.90;999.90;;;10.30;99.90;;;;;;5011707;28;20407;-72
2024/02/22 01:59:53;;;;;;;1999.90;999.90;;;10.30;99.90;;;;;;5011751;28;20404;-70
2024/02/22 02:02:19;;;;;;;1999.90;999.90;;;10.30;99.90;;;;;;5011527;28;20174;-69
2024/02/22 02:04:46;;;;;;;1999.90;999.90;;;10.20;99.90;;;;;;5013844;28;20411;-69
2024/02/22 02:07:11;;;;;;;1999.90;999.90;;;10.40;99.90;;;;;;5015488;28;20224;-69
2024/02/22 02:09:37;;;;;;;1999.90;999.90;;;10.40;99.90;;;;;;5015423;28;20418;-69
2024/02/22 02:12:03;;;;;;;1999.90;999.90;;;10.40;99.90;;;;;;5015011;28;20172;-69
2024/02/22 02:14:28;;;;;;;1999.90;999.90;;;10.40;99.90;;;;;;5015134;28;20170;-69
2024/02/22 02:16:54;;;;;;;1999.90;999.90;;;10.30;99.90;;;;;;5015168;28;20189;-69
2024/02/22 02:19:20;;;;;;;1999.90;999.90;;;10.40;99.90;;;;;;5015188;28;20170;-69
2024/02/22 02:22:10;;;;;;;1999.90;999.90;;;10.40;99.90;;;;;;5013684;28;20250;-69
2024/02/22 02:25:05;;;;;;;1999.90;999.90;;;10.40;99.90;;;;;;5015080;28;20403;-69
2024/02/22 02:27:31;;;;;;;1999.90;999.90;;;10.30;99.90;;;;;;5014504;28;20443;-68
2024/02/22 02:29:57;;;;;;;1999.90;999.90;;;10.40;99.90;;;;;;5014989;28;20435;-69
2024/02/22 02:32:22;;;;;;;1999.90;999.90;;;10.40;99.90;;;;;;5014687;28;20481;-69
2024/02/22 02:34:48;;;;;;;1999.90;999.90;;;10.10;99.90;;;;;;5014647;28;20199;-69
2024/02/22 02:37:14;;;;;;;1999.90;999.90;;;10.30;99.90;;;;;;5014927;28;20712;-69
2024/02/22 02:39:41;;;;;;;1999.90;999.90;;;10.30;99.90;;;;;;5014867;28;20172;-69
2024/02/22 02:42:06;;;;;;;1999.90;999.90;;;10.30;99.90;;;;;;5014515;28;20237;-68
2024/02/22 02:44:32;;;;;;;1999.90;999.90;;;10.40;99.90;;;;;;5014712;28;20795;-69
2024/02/22 02:46:57;;;;;;;1999.90;999.90;;;10.40;99.90;;;;;;5014537;28;20212;-69
2024/02/22 02:49:23;;;;;;;1999.90;999.90;;;10.40;99.90;;;;;;5014574;28;20254;-69
2024/02/22 02:51:49;;;;;;;1999.90;999.90;;;10.40;99.90;;;;;;5014314;28;20797;-69
2024/02/22 02:54:15;;;;;;;1999.90;999.90;;;10.40;99.90;;;;;;5014532;28;20546;-70
2024/02/22 02:56:40;;;;;;;1999.90;999.90;;;10.50;99.90;;;;;;5014386;28;20207;-69
2024/02/22 02:59:06;;;;;;;1999.90;999.90;;;10.40;99.90;;;;;;5014487;28;20423;-69
2024/02/22 03:01:32;;;;;;;1999.90;999.90;;;;;;;;;;5014178;28;20172;-69
2024/02/22 03:03:58;;;;;;;1999.90;999.90;;;10.50;99.90;;;;;;5014231;28;20183;-69
2024/02/22 03:06:24;;;;;;;1999.90;999.90;;;10.40;99.90;;;;;;5014255;28;20945;-69
2024/02/22 03:08:49;;;;;;;1999.90;999.90;;;10.40;99.90;;;;;;5013312;28;20183;-69
2024/02/22 03:11:15;;;;;;;1999.90;999.90;;;10.40;99.90;;;;;;5012783;28;20176;-70
2024/02/22 03:13:41;;;;;;;1999.90;999.90;;;10.40;99.90;;;;;;5014184;28;20181;-70
2024/02/22 03:16:07;;;;;;;1999.90;999.90;;;10.40;99.90;;;;;;5013664;28;20221;-70
2024/02/22 03:18:35;;;;;;;1999.90;999.90;;;10.40;99.90;;;;;;5014025;28;20426;-69
2024/02/22 03:21:01;;;;;;;1999.90;999.90;;;10.40;99.90;;;;;;5013744;28;20502;-69
2024/02/22 03:23:27;;;;;;;1999.90;999.90;;;10.40;99.90;;;;;;5013964;28;20861;-70
2024/02/22 03:25:53;;;;;;;1999.90;999.90;;;10.40;99.90;;;;;;5013911;28;20201;-69
2024/02/22 03:28:19;;;;;;;1999.90;999.90;;;10.50;99.90;;;;;;5013952;28;20206;-70
2024/02/22 03:30:46;;;;;;;1999.90;999.90;;;10.50;99.90;;;;;;5013695;28;20859;-70
2024/02/22 03:33:13;;;;;;;1999.90;999.90;;;10.50;99.90;;;;;;5013722;28;20415;-70
2024/02/22 03:35:38;;;;;;;1999.90;999.90;;;10.50;99.90;;;;;;5013663;28;20886;-70
2024/02/22 03:38:04;;;;;;;1999.90;999.90;;;10.50;99.90;;;;;;5013706;28;20437;-69
2024/02/22 03:40:30;;;;;;;1999.90;999.90;;;10.50;99.90;;;;;;5013463;28;20596;-69
2024/02/22 03:42:57;;;;;;;1999.90;999.90;;;10.50;99.90;;;;;;5013520;28;20232;-68
2024/02/22 03:45:23;;;;;;;1999.90;999.90;;;10.50;99.90;;;;;;5013403;28;20500;-70
2024/02/22 03:47:49;;;;;;;1999.90;999.90;;;10.50;99.90;;;;;;5013469;28;20886;-69
2024/02/22 03:50:15;;;;;;;1999.90;999.90;;;10.50;99.90;;;;;;5013587;28;20411;-69
2024/02/22 03:52:41;;;;;;;1999.90;999.90;;;10.50;99.90;;;;;;5013209;28;20804;-69
2024/02/22 03:55:08;;;;;;;1999.90;999.90;;;10.50;99.90;;;;;;5013228;28;20454;-69
2024/02/22 03:57:34;;;;;;;1999.90;999.90;;;10.50;99.90;;;;;;5013341;28;20175;-69
2024/02/22 03:59:59;;;;;;;1999.90;999.90;;;10.50;99.90;;;;;;5012105;28;20415;-69
2024/02/22 04:02:25;;;;;;;1999.90;999.90;;;10.50;99.90;;;;;;5012980;28;20638;-69
2024/02/22 04:04:53;;;;;;;1999.90;999.90;;;10.80;99.90;;;;;;5013191;28;20667;-69
2024/02/22 04:07:19;;;;;;;1999.90;999.90;;;10.50;99.90;;;;;;5013159;28;20411;-69
2024/02/22 04:09:44;;;;;;;1999.90;999.90;;;10.50;99.90;;;;;;5013126;28;20453;-69
2024/02/22 04:12:10;;;;;;;1999.90;999.90;;;10.50;99.90;;;;;;5012796;28;20637;-68
2024/02/22 04:14:36;;;;;;;1999.90;999.90;;;10.50;99.90;;;;;;5011714;28;20533;-69
2024/02/22 04:17:01;;;;;;;1999.90;999.90;;;10.50;99.90;;;;;;5011622;28;20199;-69
2024/02/22 04:19:27;;;;;;;1999.90;999.90;;;10.50;99.90;;;;;;5013067;28;20255;-69
2024/02/22 04:21:52;;;;;;;1999.90;999.90;;;10.50;99.90;;;;;;5012699;28;20524;-68
2024/02/22 04:24:18;;;;;;;1999.90;999.90;;;10.60;99.90;;;;;;5012812;28;20176;-69
2024/02/22 04:26:50;;;;;;;1999.90;999.90;;;10.60;99.90;;;;;;5012195;28;20194;-69
2024/02/22 04:29:16;;;;;;;1999.90;999.90;;;10.60;99.90;;;;;;5012785;28;20244;-69
2024/02/22 04:31:45;;;;;;;1999.90;999.90;;;10.50;99.90;;;;;;5012455;28;20445;-69
2024/02/22 04:34:11;;;;;;;1999.90;999.90;;;10.50;99.90;;;;;;5011445;28;20469;-68
2024/02/22 04:36:41;;;;;;;1999.90;999.90;;;10.60;99.90;;;;;;5011351;28;20613;-69
2024/02/22 04:39:09;;;;;;;1999.90;999.90;;;10.60;99.90;;;;;;5012711;28;20407;-68
2024/02/22 04:41:38;;;;;;;1999.90;999.90;;;10.60;99.90;;;;;;5012326;28;20402;-69
2024/02/22 04:44:04;;;;;;;1999.90;999.90;;;10.60;99.90;;;;;;5012531;28;20406;-69
2024/02/22 04:46:32;;;;;;;1999.90;999.90;;;10.60;99.90;;;;;;5012483;28;20450;-69
2024/02/22 04:49:00;;;;;;;1999.90;999.90;;;10.60;99.90;;;;;;5012518;28;20434;-69
2024/02/22 04:51:25;;;;;;;1999.90;999.90;;;10.60;99.90;;;;;;5011017;28;20419;-69
2024/02/22 04:53:51;;;;;;;1999.90;999.90;;;10.70;99.90;;;;;;5012389;28;20407;-69
2024/02/22 04:56:17;;;;;;;1999.90;999.90;;;10.70;99.90;;;;;;5012316;28;20200;-69
2024/02/22 04:58:42;;;;;;;1999.90;999.90;;;10.80;99.90;;;;;;5012340;28;20167;-69
2024/02/22 05:01:08;;;;;;;1999.90;999.90;;;10.80;99.90;;;;;;5012048;28;20168;-69
2024/02/22 05:03:34;;;;;;;1999.90;999.90;;;10.80;99.90;;;;;;5012254;28;20201;-69
2024/02/22 05:05:59;;;;;;;1999.90;999.90;;;10.80;99.90;;;;;;5012232;28;20540;-68
2024/02/22 05:08:25;;;;;;;1999.90;999.90;;;11.00;99.90;;;;;;5012261;28;20418;-68
2024/02/22 05:10:51;;;;;;;1999.90;999.90;;;10.70;99.90;;;;;;5012207;28;20227;-68
2024/02/22 05:13:16;;;;;;;1999.90;999.90;;;10.90;99.90;;;;;;5012114;28;20259;-68
2024/02/22 05:15:42;;;;;;;1999.90;999.90;;;10.90;99.90;;;;;;5011988;28;20201;-68
2024/02/22 05:18:10;;;;;;;1999.90;999.90;;;10.90;99.90;;;;;;5010849;28;20227;-67
2024/02/22 05:20:36;;;;;;;1999.90;999.90;;;10.80;99.90;;;;;;5011910;28;20184;-67
2024/02/22 05:23:04;;;;;;;1999.90;999.90;;;10.80;99.90;;;;;;5012042;28;20407;-68
2024/02/22 05:25:29;;;;;;;1999.90;999.90;;;10.70;99.90;;;;;;5010750;28;20442;-68
2024/02/22 05:27:55;;;;;;;1999.90;999.90;;;10.70;99.90;;;;;;5012022;28;20413;-68
2024/02/22 05:30:20;;;;;;;1999.90;999.90;;;10.60;99.90;;;;;;5011710;28;20179;-68
2024/02/22 05:32:46;;;;;;;1999.90;999.90;;;10.50;99.90;;;;;;5011816;28;20172;-68
2024/02/22 05:35:11;;;;;;;1999.90;999.90;;;10.50;99.90;;;;;;5011854;28;20199;-69
2024/02/22 05:37:37;;;;;;;1999.90;999.90;;;10.60;99.90;;;;;;5012612;28;20400;-68
2024/02/22 05:40:05;;;;;;;1999.90;999.90;;;10.40;99.90;;;;;;5015959;28;20195;-68
2024/02/22 05:42:31;;;;;;;1999.90;999.90;;;10.40;99.90;;;;;;5015551;28;20164;-68
2024/02/22 05:44:57;;;;;;;1999.90;999.90;;;10.10;99.90;;;;;;5015690;28;20918;-68
2024/02/22 05:47:23;;;;;;;1999.90;999.90;;;10.40;99.90;;;;;;5015857;28;20501;-68
2024/02/22 05:49:49;;;;;;;1999.90;999.90;;;10.40;99.90;;;;;;5015740;28;20180;-68
2024/02/22 05:52:14;;;;;;;1999.90;999.90;;;10.40;99.90;;;;;;5015415;28;20507;-68
2024/02/22 05:54:45;;;;;;;1999.90;999.90;;;10.50;99.90;;;;;;5015635;28;20271;-68
2024/02/22 05:57:12;;;;;;;1999.90;999.90;;;;;;;;;;5015626;28;20687;-68
2024/02/22 05:59:38;;;;;;;1999.90;999.90;;;10.50;99.90;;;;;;5015531;28;20429;-68
2024/02/22 06:02:03;;;;;;;1999.90;999.90;;;10.60;99.90;;;;;;5015365;28;20415;-68
2024/02/22 06:04:29;;;;;;;1999.90;999.90;;;10.90;99.90;;;;;;5015524;28;20413;-68
2024/02/22 06:06:55;;;;;;;1999.90;999.90;;;10.60;99.90;;;;;;5015440;28;20209;-68
2024/02/22 06:09:20;;;;;;;1999.90;999.90;;;10.80;99.90;;;;;;5015392;28;20199;-68
2024/02/22 06:11:46;;;;;;;1999.90;999.90;;;10.80;99.90;;;;;;5015131;28;20264;-69
2024/02/22 06:14:11;;;;;;;1999.90;999.90;;;10.80;99.90;;;;;;5015282;28;20644;-69
2024/02/22 06:16:37;;;;;;;1999.90;999.90;;;10.90;99.90;;;;;;5015164;28;20212;-68
2024/02/22 06:19:03;;;;;;;1999.90;999.90;;;10.90;99.90;;;;;;5015250;28;20183;-66
2024/02/22 06:21:28;;;;;;;1999.90;999.90;;;11.00;99.90;;;;;;5013678;28;20300;-67
2024/02/22 06:23:55;;;;;;;1999.90;999.90;;;11.10;99.90;;;;;;5015108;28;20226;-67
2024/02/22 06:26:21;;;;;;;1999.90;999.90;;;11.00;99.90;;;;;;5015054;28;20649;-67
2024/02/22 06:28:47;;;;;;;1999.90;999.90;;;10.90;99.90;;;;;;5015020;28;20425;-67
2024/02/22 06:31:13;;;;;;;1999.90;999.90;;;10.90;99.90;;;;;;5014856;28;20801;-67
2024/02/22 06:33:39;;;;;;;1999.90;999.90;;;10.90;99.90;;;;;;5014905;28;20415;-67
2024/02/22 06:36:05;;;;;;;1999.90;999.90;;;10.80;99.90;;;;;;5014707;28;20477;-67
2024/02/22 06:38:31;;;;;;;1999.90;999.90;;;10.80;99.90;;;;;;5014872;28;20543;-67
2024/02/22 06:40:58;;;;;;;1999.90;999.90;;;10.80;99.90;;;;;;5014639;28;20490;-67
2024/02/22 06:43:24;;;;;;;1999.90;999.90;;;10.80;99.90;;;;;;5014697;28;20171;-67
2024/02/22 06:45:49;;;;;;;1999.90;999.90;;;10.80;99.90;;;;;;5014748;28;20447;-67
2024/02/22 06:48:15;;;;;;;1999.90;999.90;;;10.80;99.90;;;;;;5014754;28;20179;-67
2024/02/22 06:50:41;;;;;;;1999.90;999.90;;;10.70;99.90;;;;;;5013747;28;20188;-69
2024/02/22 06:53:07;;;;;;;1999.90;999.90;;;10.80;99.90;;;;;;5014512;28;20468;-69
2024/02/22 06:55:33;;;;;;;1999.90;999.90;;;10.70;99.90;;;;;;5014742;28;20546;-70
2024/02/22 06:58:01;;;;;;;1999.90;999.90;;;10.80;99.90;;;;;;5014731;28;20196;-69
2024/02/22 07:00:26;;;;;;;1999.90;999.90;;;10.80;99.90;;;;;;5014275;28;20783;-70
2024/02/22 07:02:52;;;;;;;1999.90;999.90;;;10.80;99.90;;;;;;5014791;28;20406;-69
2024/02/22 07:05:18;;;;;;;1999.90;999.90;;;10.80;99.90;;;;;;5014474;28;20237;-70
2024/02/22 07:07:44;;;;;;;1999.90;999.90;;;10.80;99.90;;;;;;5014449;28;20226;-69
2024/02/22 07:10:15;;;;;;;1999.90;999.90;;;10.80;99.90;;;;;;5014307;28;20422;-69
2024/02/22 07:12:43;;;;;;;1999.90;999.90;;;10.80;99.90;;;;;;5012737;28;20184;-70
2024/02/22 07:15:10;;;;;;;1999.90;999.90;;;10.80;99.90;;;;;;5014251;28;20458;-69
2024/02/22 07:17:36;;;;;;;1999.90;999.90;;;10.80;99.90;;;;;;5012899;28;20793;-69
2024/02/22 07:20:02;;;;;;;1999.90;999.90;;;10.90;99.90;;;;;;5014162;28;20499;-67
2024/02/22 07:22:27;;;;;;;1999.90;999.90;;;10.90;99.90;;;;;;5013752;28;20175;-67
2024/02/22 07:24:53;;;;;;;1999.90;999.90;;;10.60;99.90;;;;;;5014008;28;20179;-67
2024/02/22 07:27:18;;;;;;;1999.90;999.90;;;10.80;99.90;;;;;;5013990;28;20725;-67
2024/02/22 07:29:44;;;;;;;1999.90;999.90;;;10.80;99.90;;;;;;5014018;28;20244;-67
2024/02/22 07:32:10;;;;;;;1999.90;999.90;;;10.90;99.90;;;;;;5013619;28;20524;-67
2024/02/22 07:34:36;;;;;;;1999.90;999.90;;;11.00;99.90;;;;;;5013864;28;20208;-67
2024/02/22 07:37:01;;;;;;;1999.90;999.90;;;11.10;99.90;;;;;;5013712;28;20432;-67
2024/02/22 07:39:27;;;;;;;1999.90;999.90;;;11.10;99.90;;;;;;5013816;28;20222;-69
2024/02/22 07:41:55;;;;;;;1999.90;999.90;;;11.10;99.90;;;;;;5013627;28;20174;-69
2024/02/22 07:44:20;;;;;;;1999.90;999.90;;;11.00;99.90;;;;;;5013659;28;20172;-69
2024/02/22 07:46:46;;;;;;;1999.90;999.90;;;;;;;;;;5013512;28;20452;-69
2024/02/22 07:49:12;;;;;;;1999.90;999.90;;;11.00;99.90;;;;;;5013579;28;20187;-69
2024/02/22 07:51:38;;;;;;;1999.90;999.90;;;11.10;99.90;;;;;;5013274;28;20416;-69
2024/02/22 07:54:04;;;;;;;1999.90;999.90;;;11.20;99.90;;;;;;5013823;28;20258;-69
2024/02/22 07:56:30;;;;;;;1999.90;999.90;;;;;;;;;;5013242;28;20454;-69
2024/02/22 07:58:58;;;;;;;1999.90;999.90;;;11.30;99.90;;;;;;5013434;28;20171;-69
2024/02/22 08:01:23;;;;;;;1999.90;999.90;;;11.30;99.90;;;;;;5012055;28;20419;-69
2024/02/22 08:03:49;;;;;;;1999.90;999.90;;;11.20;99.90;;;;;;5013334;28;20500;-69
2024/02/22 08:06:16;;;;;;;1999.90;999.90;;;11.20;99.90;;;;;;5011837;28;20443;-69
2024/02/22 08:08:41;;;;;;;1999.90;999.90;;;11.10;99.90;;;;;;5013246;28;20176;-70
2024/02/22 08:11:08;;;;;;;1999.90;999.90;;;11.20;99.90;;;;;;5012947;28;20417;-69
2024/02/22 08:13:34;;;;;;;1999.90;999.90;;;11.20;99.90;;;;;;5013116;28;20196;-69
2024/02/22 08:16:07;;;;;;;1999.90;999.90;;;11.20;99.90;;;;;;5013007;28;20974;-69
2024/02/22 08:18:33;;;;;;;1999.90;999.90;;;11.20;99.90;;;;;;5013148;28;20865;-69
2024/02/22 08:21:00;;;;;;;1999.90;999.90;;;11.30;99.90;;;;;;5012822;28;20403;-69
2024/02/22 08:23:25;;;;;;;1999.90;999.90;;;11.30;99.90;;;;;;5012943;28;20910;-69
2024/02/22 08:25:51;;;;;;;1999.90;999.90;;;11.40;99.90;;;;;;5012867;28;20424;-70
2024/02/22 08:28:17;;;;;;;1999.90;999.90;;;11.40;99.90;;;;;;5012857;28;20423;-69
2024/02/22 08:30:42;;;;;;;1999.90;999.90;;;11.40;99.90;;;;;;5012667;28;20172;-70
2024/02/22 08:33:08;;;;;;;1999.90;999.90;;;11.50;99.90;;;;;;5012764;28;20555;-69
2024/02/22 08:35:33;;;;;;;1999.90;999.90;;;11.40;99.90;;;;;;5012226;28;20219;-69
2024/02/22 08:37:59;;;;;;;1999.90;999.90;;;11.40;99.90;;;;;;5011272;28;20711;-69
2024/02/22 08:40:25;;;;;;;1999.90;999.90;;;11.50;99.90;;;;;;5011974;28;20177;-69
2024/02/22 08:42:52;;;;;;;1999.90;999.90;;;11.50;99.90;;;;;;5012608;28;20176;-69
2024/02/22 08:45:18;;;;;;;1999.90;999.90;;;11.40;99.90;;;;;;5012383;28;20212;-69
2024/02/22 08:47:44;;;;;;;1999.90;999.90;;;11.40;99.90;;;;;;5012559;28;20404;-69
2024/02/22 08:50:13;;;;;;;1999.90;999.90;;;11.50;99.90;;;;;;5012395;28;20529;-69
2024/02/22 08:52:43;;;;;;;1999.90;999.90;;;11.50;99.90;;;;;;5012019;28;20478;-69
2024/02/22 08:55:12;;;;;;;1999.90;999.90;;;11.50;99.90;;;;;;5012238;28;20474;-69
2024/02/22 08:57:39;;;;;;;1999.90;999.90;;;11.60;99.90;;;;;;5012376;28;20775;-69
2024/02/22 09:00:06;;;;;;;1999.90;999.90;;;11.60;99.90;;;;;;5012349;28;20414;-69
2024/02/22 09:02:32;;;;;;;1999.90;999.90;;;11.60;99.90;;;;;;5012037;28;20764;-70
2024/02/22 09:04:58;;;;;;;1999.90;999.90;;;11.60;99.90;;;;;;5012209;28;20428;-69
2024/02/22 09:07:24;;;;;;;1999.90;999.90;;;11.60;99.90;;;;;;5012248;28;20470;-69
2024/02/22 09:09:51;;;;;;;1999.90;999.90;;;;;;;;;;5012263;28;20444;-69
2024/02/22 09:12:17;;;;;;;1999.90;999.90;;;11.80;99.90;;;;;;5011647;28;20861;-69
2024/02/22 09:14:43;;;;;;;1999.90;999.90;;;11.80;99.90;;;;;;5012097;28;20499;-69
2024/02/22 09:17:09;;;;;;;1999.90;999.90;;;11.80;99.90;;;;;;5012095;28;20508;-66
2024/02/22 09:19:34;;;;;;;1999.90;999.90;;;11.90;99.90;;;;;;5012072;28;20608;-67
2024/02/22 09:22:00;;;;;;;1999.90;999.90;;;12.10;99.90;;;;;;5009151;28;20178;-66
2024/02/22 09:24:32;;;;;;;1999.90;999.90;;;12.30;99.90;;;;;;5012222;28;20179;-66
2024/02/22 09:26:57;;;;;;;1999.90;999.90;;;12.30;99.90;;;;;;5010717;28;20213;-66
2024/02/22 09:29:26;;;;;;;1999.90;999.90;;;12.30;99.90;;;;;;5011855;28;20411;-67
2024/02/22 09:31:55;;;;;;;1999.90;999.90;;;12.20;99.90;;;;;;5011649;28;20165;-66
2024/02/22 09:34:22;;;;;;;1999.90;999.90;;;12.20;99.90;;;;;;5012168;28;20812;-68
2024/02/22 09:36:48;;;;;;;1999.90;999.90;;;12.30;99.90;;;;;;5011744;28;20460;-69
2024/02/22 09:39:14;;;;;;;1999.90;999.90;;;12.30;99.90;;;;;;5011929;28;20495;-68
2024/02/22 09:41:42;;;;;;;1999.90;999.90;;;12.30;99.90;;;;;;5011620;28;20258;-68
2024/02/22 09:44:10;;;;;;;1999.90;999.90;;;12.30;99.90;;;;;;5011739;28;20404;-68
2024/02/22 09:46:36;;;;;;;1999.90;999.90;;;12.40;99.90;;;;;;5011303;28;20488;-68
2024/02/22 09:49:02;;;;;;;1999.90;999.90;;;12.40;99.90;;;;;;5011827;28;20415;-69
2024/02/22 09:51:30;;;;;;;1999.90;999.90;;;12.40;99.90;;;;;;5011522;28;20411;-69
2024/02/22 09:53:56;;;;;;;1999.90;999.90;;;12.50;99.90;;;;;;5011682;28;20202;-69
2024/02/22 09:56:22;;;;;;;1999.90;999.90;;;12.60;99.90;;;;;;5011466;28;20454;-70
2024/02/22 09:58:48;;;;;;;1999.90;999.90;;;12.70;99.90;;;;;;5008391;28;20923;-70
2024/02/22 10:01:13;;;;;;;1999.90;999.90;;;12.80;99.90;;;;;;5008726;28;20203;-69
2024/02/22 10:03:40;;;;;;;1999.90;999.90;;;12.90;99.90;;;;;;5016095;28;20407;-69
2024/02/22 10:06:27;;;;;;;1999.90;999.90;;;12.90;99.90;;;;;;5017765;28;20192;-70
2024/02/22 10:08:58;;;;;;;1999.90;999.90;;;13.00;99.90;;;;;;5011498;28;20943;-71
2024/02/22 10:11:24;;;;;;;1999.90;999.90;;;13.00;99.90;;;;;;5013644;28;20409;-70
2024/02/22 10:14:03;;;;;;;1999.90;999.90;;;13.00;99.90;;;;;;5011028;28;20425;-70
2024/02/22 10:16:29;;;;;;;1999.90;999.90;;;13.10;99.90;;;;;;5010073;28;20212;-69
2024/02/22 10:18:59;;;;;;;1999.90;999.90;;;13.10;99.90;;;;;;5018143;28;21050;-68
2024/02/22 10:21:28;;;;;;;1999.90;999.90;;;13.10;99.90;;;;;;5010569;28;20193;-69
2024/02/22 10:23:55;;;;;;;1999.90;999.90;;;13.10;99.90;;;;;;5020319;28;20419;-68
2024/02/22 10:26:20;;;;;;;1999.90;999.90;;;13.10;99.90;;;;;;5006529;28;20442;-68
2024/02/22 10:29:08;;;;;;;1999.90;999.90;;;13.20;99.90;;;;;;5014237;28;20623;-68
2024/02/22 10:31:40;;;;;;;1999.90;999.90;;;13.20;99.90;;;;;;5014214;28;20565;-69
2024/02/22 10:34:06;;;;;;;1999.90;999.90;;;13.50;99.90;;;;;;5014291;28;20425;-68
2024/02/22 10:36:32;;;;;;;1999.90;999.90;;;13.30;99.90;;;;;;5007145;28;20454;-69
2024/02/22 10:38:58;;;;;;;1999.90;999.90;;;13.40;99.90;;;;;;5016274;28;20216;-70
2024/02/22 10:41:24;;;;;;;1999.90;999.90;;;13.40;99.90;;;;;;5013895;28;20419;-69
2024/02/22 10:43:51;;;;;;;1999.90;999.90;;;13.50;99.90;;;;;;5013897;28;20171;-70
2024/02/22 10:46:18;;;;;;;1999.90;999.90;;;13.60;99.90;;;;;;5014100;28;20451;-71
2024/02/22 10:48:53;;;;;;;1999.90;999.90;;;13.60;99.90;;;;;;5014448;28;20936;-68
2024/02/22 10:51:20;;;;;;;1999.90;999.90;;;13.40;99.90;;;;;;5014089;28;20783;-70
2024/02/22 10:53:51;;;;;;;1999.90;999.90;;;13.60;99.90;;;;;;5015108;28;20444;-69
2024/02/22 10:56:22;;;;;;;1999.90;999.90;;;13.50;99.90;;;;;;5015832;28;20466;-68
2024/02/22 10:58:54;;;;;;;1999.90;999.90;;;13.20;99.90;;;;;;5012621;28;20427;-70
2024/02/22 11:01:21;;;;;;;1999.90;999.90;;;13.40;99.90;;;;;;5013850;28;20416;-69
2024/02/22 11:03:47;;;;;;;1999.90;999.90;;;13.30;99.90;;;;;;5014188;28;20426;-70
2024/02/22 11:06:13;;;;;;;1999.90;999.90;;;13.30;99.90;;;;;;5013576;28;20440;-69
2024/02/22 11:08:50;;;;;;;1999.90;999.90;;;13.30;99.90;;;;;;5014247;28;20428;-69
2024/02/22 11:11:30;;;;;;;1999.90;999.90;;;13.30;99.90;;;;;;5007488;28;20841;-69
2024/02/22 11:14:01;;;;;;;1999.90;999.90;;;13.30;99.90;;;;;;5013258;28;20423;-70
2024/02/22 11:16:38;;;;;;;1999.90;999.90;;;13.30;99.90;;;;;;5014038;28;20454;-68
2024/02/22 11:19:13;;;;;;;1999.90;999.90;;;13.30;99.90;;;;;;5013712;28;20454;-69
2024/02/22 11:21:43;;;;;;;1999.90;999.90;;;13.40;99.90;;;;;;5012792;28;20449;-69
2024/02/22 11:24:12;;;;;;;1999.90;999.90;;;13.50;99.90;;;;;;5013254;28;20415;-69
2024/02/22 11:26:39;;;;;;;1999.90;999.90;;;13.70;99.90;;;;;;5013333;28;20444;-68
2024/02/22 11:29:06;;;;;;;1999.90;999.90;;;13.80;99.90;;;;;;5012955;28;20415;-69
2024/02/22 11:31:32;;;;;;;1999.90;999.90;;;13.90;99.90;;;;;;5013541;28;20410;-69
2024/02/22 11:33:58;;;;;;;1999.90;999.90;;;14.00;99.90;;;;;;5013353;28;20908;-69
2024/02/22 11:36:25;;;;;;;1999.90;999.90;;;14.10;99.90;;;;;;5012752;28;20451;-69
2024/02/22 11:39:06;;;;;;;1999.90;999.90;;;14.30;99.90;;;;;;5013567;28;20421;-69
2024/02/22 11:41:34;;;;;;;1999.90;999.90;;;14.30;99.00;;;;;;5012994;28;20414;-70
2024/02/22 11:44:07;;;;;;;1999.90;999.90;;;14.40;99.30;;;;;;5013038;28;20777;-69
2024/02/22 11:46:37;;;;;;;1999.90;999.90;;;14.50;99.90;;;;;;5013230;28;20452;-69
2024/02/22 11:49:04;;;;;;;1999.90;999.90;;;14.60;94.30;;;;;;5013442;28;20927;-69
2024/02/22 11:51:33;;;;;;;1999.90;999.90;;;14.60;94.90;;;;;;5012253;28;20752;-69
2024/02/22 11:53:59;;;;;;;1999.90;999.90;;;14.60;94.90;;;;;;5013103;28;20503;-69
2024/02/22 11:56:26;;;;;;;1999.90;999.90;;;14.70;94.70;;;;;;5013156;28;20598;-69
2024/02/22 11:58:55;;;;;;;1999.90;999.90;;;14.70;94.60;;;;;;5013063;28;20202;-69